Terminal Aerodrome Forecast
Issued by NWS

Home | Current Version | Previous Version | Text Only | Print | Product List | Glossary On
Versions: 1 2 3 4 5 6 7 8 9 10 11 12 13 14 15 16 17 18 19 20 21 22
000
FTUS46 KOTX 242338
TAFCOE
TAF
KCOE 242338Z 2500/2524 24013G18KT P6SM VCTS BKN045CB BKN070
     FM250200 19005KT P6SM SCT045 BKN200
     FM251200 17005KT P6SM FEW070 BKN120
     FM251800 20005KT P6SM BKN060 OVC090
     FM252200 23010KT P6SM VCSH SCT045 OVC060
      AMD LTD TO CLD VIS AND WIND=

USA.gov is the U.S. government's official web portal to all federal, state and local government web resources and services.